Time;durP1;ratioP1;P1;durP2;ratioP2;P2;SDS_P1;SDS_P2;PMS_P1;PMS_P2;Temp;Humidity;BMP_temperature;BMP_pressure;BME280_temperature;BME280_humidity;BME280_pressure;Samples;Min_cycle;Max_cycle;Signal;HPM_P1;HPM_P2
2020/12/10 00:01:36;;;;;;;97.45;21.58;;;1.50;52.50;;;;;;5031210;28;20214;-76
2020/12/10 00:04:03;;;;;;;89.18;20.83;;;1.50;53.00;;;;;;5031125;28;20320;-76
2020/12/10 00:06:30;;;;;;;88.55;19.67;;;1.60;54.60;;;;;;5031290;28;20210;-77
2020/12/10 00:08:57;;;;;;;95.30;21.33;;;1.60;56.30;;;;;;5031373;28;20293;-76
2020/12/10 00:11:23;;;;;;;84.40;19.40;;;1.50;55.10;;;;;;5031558;28;20214;-76
2020/12/10 00:13:50;;;;;;;87.00;19.23;;;1.50;55.40;;;;;;5031486;28;20739;-76
2020/12/10 00:16:16;;;;;;;88.72;19.40;;;1.50;56.10;;;;;;5031577;28;20592;-76
2020/12/10 00:18:42;;;;;;;84.68;17.98;;;1.50;55.90;;;;;;5031580;28;20333;-76
2020/12/10 00:21:09;;;;;;;91.38;21.70;;;1.50;55.60;;;;;;5030749;28;20755;-76
2020/12/10 00:23:35;;;;;;;83.38;17.52;;;1.60;56.80;;;;;;5031315;28;20660;-76
2020/12/10 00:26:03;;;;;;;85.55;18.60;;;1.60;57.50;;;;;;5030957;28;20293;-76
2020/12/10 00:28:29;;;;;;;90.35;19.70;;;1.60;56.20;;;;;;5031292;28;20664;-76
2020/12/10 00:30:55;;;;;;;95.85;19.63;;;1.50;54.90;;;;;;5030946;28;20301;-76
2020/12/10 00:33:22;;;;;;;85.97;20.15;;;1.50;55.60;;;;;;5031098;28;20226;-76
2020/12/10 00:35:48;;;;;;;83.25;17.45;;;1.50;54.60;;;;;;5030814;28;20214;-76
2020/12/10 00:38:15;;;;;;;90.20;18.17;;;1.50;55.20;;;;;;5033866;28;20669;-76
2020/12/10 00:40:41;;;;;;;82.88;17.88;;;1.50;54.60;;;;;;5034534;28;21047;-76
2020/12/10 00:43:08;;;;;;;88.07;17.23;;;1.50;54.00;;;;;;5034783;28;20244;-76
2020/12/10 00:45:34;;;;;;;91.07;19.08;;;1.50;54.80;;;;;;5034926;28;20207;-76
2020/12/10 00:48:01;;;;;;;90.10;18.17;;;1.50;54.40;;;;;;5034610;28;20260;-76
2020/12/10 00:50:27;;;;;;;93.07;20.67;;;1.50;54.20;;;;;;5034497;28;20292;-76
2020/12/10 00:52:53;;;;;;;105.75;22.10;;;1.50;54.00;;;;;;5034593;28;20226;-76
2020/12/10 00:55:20;;;;;;;94.13;21.83;;;1.50;54.30;;;;;;5034794;28;20206;-76
2020/12/10 00:57:46;;;;;;;93.22;19.52;;;1.50;52.60;;;;;;5034313;28;20234;-76
2020/12/10 01:00:17;;;;;;;102.43;22.38;;;1.50;53.40;;;;;;5034356;28;20206;-76
2020/12/10 01:02:44;;;;;;;88.90;18.38;;;1.50;51.80;;;;;;5034000;28;20218;-76
2020/12/10 01:05:10;;;;;;;89.80;17.15;;;1.50;52.70;;;;;;5034383;28;20717;-77
2020/12/10 01:07:37;;;;;;;91.03;20.02;;;1.50;53.40;;;;;;5034204;28;20708;-76
2020/12/10 01:10:05;;;;;;;87.97;17.70;;;1.50;54.80;;;;;;5034044;28;20206;-76
2020/12/10 01:12:31;;;;;;;86.93;18.27;;;1.50;55.10;;;;;;5034254;28;20206;-76
2020/12/10 01:14:57;;;;;;;85.88;17.20;;;1.50;55.60;;;;;;5034202;28;20252;-76
2020/12/10 01:17:24;;;;;;;90.28;18.42;;;1.60;56.40;;;;;;5034272;28;20230;-76
2020/12/10 01:19:51;;;;;;;89.13;18.35;;;1.60;55.40;;;;;;5034264;28;20202;-76
2020/12/10 01:22:17;;;;;;;90.30;19.50;;;1.60;57.10;;;;;;5034061;28;20313;-76
2020/12/10 01:24:44;;;;;;;91.18;19.00;;;1.60;55.90;;;;;;5033846;28;20313;-76
2020/12/10 01:27:10;;;;;;;86.38;18.70;;;1.60;57.40;;;;;;5033942;28;20742;-76
2020/12/10 01:29:36;;;;;;;88.30;18.88;;;1.50;56.90;;;;;;5033916;28;20214;-76
2020/12/10 01:32:03;;;;;;;88.03;16.55;;;1.50;57.50;;;;;;5033618;28;20213;-76
2020/12/10 01:34:30;;;;;;;89.57;18.50;;;1.60;58.30;;;;;;5033711;28;20702;-76
2020/12/10 01:36:56;;;;;;;98.13;18.55;;;1.60;59.00;;;;;;5034057;28;20230;-76
2020/12/10 01:39:23;;;;;;;91.55;21.00;;;1.60;60.10;;;;;;5034383;28;20309;-76
2020/12/10 01:41:49;;;;;;;96.30;20.38;;;1.60;60.40;;;;;;5033960;28;20297;-76
2020/12/10 01:44:15;;;;;;;89.72;19.70;;;1.60;60.30;;;;;;5033577;28;20373;-77
2020/12/10 01:46:43;;;;;;;95.38;19.40;;;1.60;60.70;;;;;;5033971;28;20199;-77
2020/12/10 01:49:10;;;;;;;89.38;17.48;;;1.60;60.30;;;;;;5033436;28;20643;-77
2020/12/10 01:51:37;;;;;;;91.43;18.38;;;1.60;60.40;;;;;;5033462;28;20210;-77
2020/12/10 01:54:05;;;;;;;88.50;17.80;;;1.60;60.70;;;;;;5033550;28;20230;-76
2020/12/10 01:56:32;;;;;;;86.75;18.15;;;1.60;60.70;;;;;;5033332;28;20222;-77
2020/12/10 01:59:00;;;;;;;92.72;20.08;;;1.60;60.70;;;;;;5033421;28;20268;-76
2020/12/10 02:01:28;;;;;;;88.20;18.42;;;1.60;61.10;;;;;;5033468;28;20612;-76
2020/12/10 02:03:54;;;;;;;90.70;19.77;;;1.60;61.10;;;;;;5067922;22;20280;-68
2020/12/10 02:06:20;;;;;;;88.88;18.20;;;1.60;61.30;;;;;;5053034;28;20202;-70
2020/12/10 02:08:48;;;;;;;89.75;19.85;;;1.60;61.50;;;;;;5053094;28;20298;-70
2020/12/10 02:11:15;;;;;;;96.82;20.00;;;1.60;61.50;;;;;;5052988;28;20213;-70
2020/12/10 02:13:42;;;;;;;94.07;20.63;;;1.60;61.60;;;;;;5052647;28;20275;-70
2020/12/10 02:16:09;;;;;;;90.60;20.17;;;1.60;62.20;;;;;;5053157;28;20296;-70
2020/12/10 02:18:36;;;;;;;94.53;20.88;;;1.60;61.60;;;;;;5052998;28;20562;-70
2020/12/10 02:21:02;;;;;;;99.30;20.90;;;1.60;61.60;;;;;;5052919;28;20233;-70
2020/12/10 02:23:30;;;;;;;95.25;21.92;;;1.60;62.20;;;;;;5052557;28;20232;-70
2020/12/10 02:25:56;;;;;;;90.75;20.17;;;1.60;62.60;;;;;;5049738;28;20229;-70
2020/12/10 02:28:23;;;;;;;96.07;22.95;;;1.60;62.80;;;;;;5052735;28;20237;-70
2020/12/10 02:30:49;;;;;;;94.10;20.10;;;1.50;62.40;;;;;;5052458;28;20202;-70
2020/12/10 02:33:17;;;;;;;98.20;19.35;;;1.50;62.30;;;;;;5052677;28;20258;-70
2020/12/10 02:35:44;;;;;;;85.15;17.40;;;1.50;62.00;;;;;;5052471;28;20240;-70
2020/12/10 02:38:12;;;;;;;90.93;19.35;;;1.50;62.30;;;;;;5052434;28;20226;-70
2020/12/10 02:40:41;;;;;;;96.68;19.92;;;1.60;62.00;;;;;;5052247;28;20295;-70
2020/12/10 02:43:07;;;;;;;95.75;18.92;;;1.50;61.90;;;;;;5052372;28;20212;-70
2020/12/10 02:45:34;;;;;;;109.65;23.45;;;1.50;62.40;;;;;;5052119;28;20245;-70
2020/12/10 02:48:00;;;;;;;110.13;22.30;;;1.50;61.40;;;;;;5052483;28;20212;-70
2020/12/10 02:50:27;;;;;;;94.90;18.75;;;1.50;61.70;;;;;;5051183;28;20215;-70
2020/12/10 02:52:53;;;;;;;91.07;19.05;;;1.50;61.40;;;;;;5051969;28;20210;-70
2020/12/10 02:55:19;;;;;;;96.15;21.27;;;1.60;62.30;;;;;;5051847;28;20221;-70
2020/12/10 02:57:47;;;;;;;87.53;18.60;;;1.60;62.20;;;;;;5052075;28;20611;-70
2020/12/10 03:00:14;;;;;;;90.60;20.75;;;1.60;61.70;;;;;;5051183;28;20210;-71
2020/12/10 03:02:41;;;;;;;97.35;18.08;;;1.50;61.90;;;;;;5051957;28;20210;-70
2020/12/10 03:05:07;;;;;;;98.03;19.85;;;1.60;61.70;;;;;;5051880;28;20233;-70
2020/12/10 03:07:34;;;;;;;92.20;19.10;;;1.50;61.80;;;;;;5051495;28;20202;-70
2020/12/10 03:10:01;;;;;;;85.32;18.00;;;1.50;61.70;;;;;;5052002;28;20202;-70
2020/12/10 03:12:27;;;;;;;94.03;19.80;;;1.60;62.70;;;;;;5051445;28;20205;-70
2020/12/10 03:14:54;;;;;;;96.35;19.77;;;1.60;62.60;;;;;;5051653;28;20316;-70
2020/12/10 03:17:20;;;;;;;98.63;21.20;;;1.60;62.20;;;;;;5051254;28;20726;-70
2020/12/10 03:19:47;;;;;;;97.72;19.30;;;1.60;62.80;;;;;;5051911;28;20217;-70
2020/12/10 03:22:14;;;;;;;94.88;19.55;;;1.60;62.40;;;;;;5050818;28;20205;-70
2020/12/10 03:24:41;;;;;;;105.68;22.63;;;1.60;62.40;;;;;;5051071;28;20229;-70
2020/12/10 03:27:08;;;;;;;111.78;26.33;;;1.60;62.00;;;;;;5051712;28;20293;-70
2020/12/10 03:29:34;;;;;;;95.72;20.33;;;1.50;61.40;;;;;;5051610;28;20271;-70
2020/12/10 03:32:02;;;;;;;89.40;18.95;;;1.50;60.90;;;;;;5051243;28;20260;-70
2020/12/10 03:34:29;;;;;;;94.90;18.88;;;1.50;61.40;;;;;;5051689;28;20764;-70
2020/12/10 03:36:56;;;;;;;92.07;19.70;;;1.50;60.50;;;;;;5051206;28;20221;-70
2020/12/10 03:39:25;;;;;;;87.97;18.13;;;1.50;60.20;;;;;;5051423;28;20640;-70
2020/12/10 03:41:52;;;;;;;88.88;19.63;;;1.50;59.90;;;;;;5051217;28;20773;-70
2020/12/10 03:44:19;;;;;;;87.45;17.17;;;1.50;59.60;;;;;;5051183;28;20225;-70
2020/12/10 03:46:46;;;;;;;90.90;16.23;;;1.50;60.10;;;;;;5051231;28;20584;-70
2020/12/10 03:49:13;;;;;;;89.13;18.30;;;1.50;60.20;;;;;;5051068;28;20673;-70
2020/12/10 03:51:40;;;;;;;99.15;20.52;;;1.60;60.00;;;;;;5050886;28;20209;-70
2020/12/10 03:54:06;;;;;;;87.65;20.65;;;1.50;60.50;;;;;;5051203;28;20248;-70
2020/12/10 03:56:33;;;;;;;88.57;20.90;;;1.60;60.30;;;;;;5051038;28;20229;-70
2020/12/10 03:58:59;;;;;;;96.93;19.05;;;1.50;60.30;;;;;;5051094;28;20213;-70
2020/12/10 04:01:26;;;;;;;90.07;18.67;;;1.50;59.50;;;;;;5051159;28;20623;-70
2020/12/10 04:03:52;;;;;;;85.30;18.17;;;1.50;60.30;;;;;;5051071;28;20324;-70
2020/12/10 04:06:19;;;;;;;96.90;20.77;;;1.50;59.90;;;;;;5051023;28;20557;-70
2020/12/10 04:08:46;;;;;;;87.03;18.38;;;1.50;60.30;;;;;;5050421;28;20587;-70
2020/12/10 04:11:12;;;;;;;90.30;18.73;;;1.50;60.30;;;;;;5051860;28;20301;-70
2020/12/10 04:13:39;;;;;;;87.78;18.63;;;1.50;60.10;;;;;;5054908;28;20233;-70
2020/12/10 04:16:05;;;;;;;91.43;19.90;;;1.50;60.30;;;;;;5055357;28;20213;-70
2020/12/10 04:18:32;;;;;;;88.32;17.50;;;1.50;60.90;;;;;;5054993;28;20566;-70
2020/12/10 04:20:59;;;;;;;87.85;20.10;;;1.50;60.80;;;;;;5054505;28;20627;-70
2020/12/10 04:23:26;;;;;;;82.68;17.77;;;1.50;61.40;;;;;;5055036;28;20225;-70
2020/12/10 04:25:53;;;;;;;90.75;19.00;;;1.60;61.30;;;;;;5055525;28;20209;-70
2020/12/10 04:28:19;;;;;;;92.72;18.00;;;1.60;61.70;;;;;;5054703;28;20205;-70
2020/12/10 04:30:45;;;;;;;94.60;18.73;;;1.60;61.70;;;;;;5055039;28;20210;-70
2020/12/10 04:33:12;;;;;;;87.40;16.00;;;1.60;62.10;;;;;;5054603;28;20232;-70
2020/12/10 04:35:39;;;;;;;95.68;19.75;;;1.60;63.00;;;;;;5054480;28;20256;-70
2020/12/10 04:38:05;;;;;;;87.30;17.50;;;1.60;62.40;;;;;;5054320;28;20321;-70
2020/12/10 04:40:34;;;;;;;92.13;18.60;;;1.60;62.10;;;;;;5054335;28;20673;-70
2020/12/10 04:43:01;;;;;;;97.78;19.85;;;1.60;61.90;;;;;;5054887;28;20213;-69
2020/12/10 04:45:27;;;;;;;95.00;22.27;;;1.50;61.40;;;;;;5054990;28;20206;-70
2020/12/10 04:47:55;;;;;;;105.90;24.90;;;1.50;61.70;;;;;;5054470;28;20260;-70
2020/12/10 04:50:23;;;;;;;96.35;20.92;;;1.50;62.00;;;;;;5054431;28;20292;-70
2020/12/10 04:52:51;;;;;;;92.57;20.23;;;1.50;61.10;;;;;;5054353;28;20297;-70
2020/12/10 04:55:17;;;;;;;100.07;20.75;;;1.50;60.90;;;;;;5054325;28;20332;-70
2020/12/10 04:57:45;;;;;;;99.90;20.05;;;1.50;60.70;;;;;;5054310;28;20320;-70
2020/12/10 05:00:14;;;;;;;93.35;20.42;;;1.50;60.30;;;;;;5054747;28;20300;-70
2020/12/10 05:02:40;;;;;;;106.22;24.58;;;1.60;59.90;;;;;;5053988;28;20680;-70
2020/12/10 05:05:24;;;;;;;107.07;24.98;;;1.50;59.40;;;;;;5053963;28;20776;-70
2020/12/10 05:07:50;;;;;;;92.72;19.70;;;1.50;58.90;;;;;;5053680;28;20251;-70
2020/12/10 05:10:17;;;;;;;98.80;20.75;;;1.50;60.10;;;;;;5054172;28;20263;-70
2020/12/10 05:12:45;;;;;;;93.18;21.13;;;1.50;60.30;;;;;;5053511;28;20205;-70
2020/12/10 05:15:12;;;;;;;104.72;20.83;;;1.50;60.50;;;;;;5054312;28;20319;-70
2020/12/10 05:17:38;;;;;;;98.25;22.65;;;1.50;60.30;;;;;;5054064;28;20256;-70
2020/12/10 05:20:06;;;;;;;106.70;26.52;;;1.50;61.20;;;;;;5054103;28;20732;-70
2020/12/10 05:22:33;;;;;;;100.93;22.92;;;1.50;60.30;;;;;;5052418;28;20209;-70
2020/12/10 05:25:00;;;;;;;108.60;22.50;;;1.50;59.60;;;;;;5053738;28;20788;-70
2020/12/10 05:27:27;;;;;;;93.97;21.23;;;1.50;58.10;;;;;;5052808;28;20301;-70
2020/12/10 05:29:55;;;;;;;97.28;21.25;;;1.50;58.00;;;;;;5053448;28;20301;-70
2020/12/10 05:32:32;;;;;;;94.93;22.25;;;1.50;58.70;;;;;;5052807;28;20213;-70
2020/12/10 05:34:59;;;;;;;101.10;21.23;;;1.50;58.90;;;;;;5053213;28;20225;-71
2020/12/10 05:37:29;;;;;;;93.63;21.90;;;1.60;58.40;;;;;;5052747;28;20225;-70
2020/12/10 05:40:00;;;;;;;93.85;21.85;;;1.60;58.30;;;;;;5053683;28;20205;-70
2020/12/10 05:42:35;;;;;;;97.25;21.65;;;1.60;58.90;;;;;;5053233;28;20201;-70
2020/12/10 05:45:10;;;;;;;95.65;23.27;;;1.60;59.10;;;;;;5053472;28;20235;-70
2020/12/10 05:47:40;;;;;;;98.60;25.25;;;1.60;57.30;;;;;;5052632;28;20243;-70
2020/12/10 05:50:06;;;;;;;98.75;25.05;;;1.60;53.50;;;;;;5053713;28;20205;-70
2020/12/10 05:52:36;;;;;;;99.55;23.15;;;1.60;42.80;;;;;;5052630;28;20232;-71
2020/12/10 05:55:04;;;;;;;91.70;22.42;;;1.50;36.80;;;;;;5053630;28;20226;-71
2020/12/10 05:57:30;;;;;;;94.93;20.30;;;1.50;33.30;;;;;;5053782;28;20309;-70
2020/12/10 05:59:57;;;;;;;91.00;18.40;;;1.50;32.50;;;;;;5053785;28;20288;-70
2020/12/10 06:02:25;;;;;;;91.97;19.92;;;1.50;33.20;;;;;;5052888;28;20720;-71
2020/12/10 06:04:53;;;;;;;87.70;19.27;;;1.50;36.70;;;;;;5053119;28;20233;-70
2020/12/10 06:07:19;;;;;;;92.35;19.77;;;1.50;38.00;;;;;;5052911;28;20205;-70
2020/12/10 06:09:46;;;;;;;90.90;20.02;;;1.50;39.70;;;;;;5053094;28;20215;-71
2020/12/10 06:12:12;;;;;;;88.95;17.90;;;1.50;41.80;;;;;;5052698;28;20206;-70
2020/12/10 06:14:54;;;;;;;89.30;19.38;;;1.50;43.50;;;;;;5052710;28;20225;-70
2020/12/10 06:17:20;;;;;;;87.75;18.27;;;1.50;45.30;;;;;;5052806;28;20235;-70
2020/12/10 06:19:48;;;;;;;87.68;20.60;;;1.60;47.40;;;;;;5052985;28;20205;-70
2020/12/10 06:22:25;;;;;;;95.18;21.17;;;1.60;47.60;;;;;;5052069;28;20237;-70
2020/12/10 06:24:52;;;;;;;92.28;17.98;;;1.60;47.90;;;;;;5052609;28;20312;-71
2020/12/10 06:27:29;;;;;;;91.32;18.35;;;1.50;48.40;;;;;;5052705;28;20202;-70
2020/12/10 06:30:18;;;;;;;86.78;18.65;;;1.50;48.60;;;;;;5052810;28;20212;-70
2020/12/10 06:32:46;;;;;;;110.15;25.42;;;1.60;48.60;;;;;;5052438;28;20591;-71
2020/12/10 06:35:28;;;;;;;89.78;20.83;;;1.60;47.40;;;;;;5050866;28;20316;-70
2020/12/10 06:37:55;;;;;;;92.13;21.17;;;1.60;46.20;;;;;;5051714;28;20712;-70
2020/12/10 06:40:30;;;;;;;96.25;22.05;;;1.60;45.20;;;;;;5052375;28;20256;-70
2020/12/10 06:42:57;;;;;;;88.60;20.80;;;1.50;45.10;;;;;;5052161;28;20205;-70
2020/12/10 06:45:27;;;;;;;94.35;23.60;;;1.60;43.70;;;;;;5052424;28;20210;-70
2020/12/10 06:47:54;;;;;;;95.20;22.95;;;1.60;43.70;;;;;;5051800;28;20205;-70
2020/12/10 06:50:22;;;;;;;89.55;19.95;;;1.60;40.80;;;;;;5051915;28;20692;-70
2020/12/10 06:53:09;;;;;;;89.10;20.55;;;1.50;40.00;;;;;;5051182;28;20296;-71
2020/12/10 06:56:07;;;;;;;92.00;19.58;;;1.60;40.30;;;;;;5051986;28;20234;-70
2020/12/10 06:58:52;;;;;;;93.45;21.63;;;1.50;41.70;;;;;;5051939;28;20238;-70
2020/12/10 07:01:26;;;;;;;99.38;22.65;;;1.50;44.40;;;;;;5051659;28;20201;-70
2020/12/10 07:03:55;;;;;;;89.88;19.63;;;1.50;45.80;;;;;;5051429;28;20239;-70
2020/12/10 07:06:21;;;;;;;88.97;20.27;;;1.50;46.30;;;;;;5051704;28;20677;-70
2020/12/10 07:09:03;;;;;;;87.20;19.40;;;1.50;46.10;;;;;;5051747;28;20672;-70
2020/12/10 07:11:31;;;;;;;95.60;23.25;;;1.60;46.30;;;;;;5051402;28;20210;-69
2020/12/10 07:13:58;;;;;;;94.28;20.70;;;1.50;47.50;;;;;;5051582;28;20321;-70
2020/12/10 07:16:29;;;;;;;86.88;21.27;;;1.50;47.50;;;;;;5051572;28;20577;-69
2020/12/10 07:18:56;;;;;;;102.53;24.60;;;1.60;50.20;;;;;;5051521;28;20221;-70
2020/12/10 07:21:23;;;;;;;99.15;24.25;;;1.50;50.60;;;;;;5051557;28;20256;-69
2020/12/10 07:23:49;;;;;;;91.75;21.38;;;1.50;48.90;;;;;;5051721;28;20232;-70
2020/12/10 07:26:17;;;;;;;89.20;19.55;;;1.50;48.60;;;;;;5051880;28;20205;-70
2020/12/10 07:28:46;;;;;;;96.30;19.83;;;1.50;49.40;;;;;;5051662;28;20210;-71
2020/12/10 07:31:17;;;;;;;96.07;20.63;;;1.50;50.40;;;;;;5051462;28;20267;-70
2020/12/10 07:33:43;;;;;;;92.78;23.00;;;1.50;50.10;;;;;;5051349;28;20230;-69
2020/12/10 07:36:10;;;;;;;97.65;22.73;;;1.50;50.70;;;;;;5051644;28;20300;-70
2020/12/10 07:38:36;;;;;;;92.40;22.88;;;1.50;51.80;;;;;;5051407;28;20233;-70
2020/12/10 07:41:03;;;;;;;93.35;22.08;;;1.50;48.70;;;;;;5051295;28;20308;-69
2020/12/10 07:43:30;;;;;;;94.35;22.80;;;1.50;45.50;;;;;;5051387;28;20708;-70
2020/12/10 07:45:56;;;;;;;95.38;21.10;;;1.60;44.60;;;;;;5050782;28;20205;-70
2020/12/10 07:48:23;;;;;;;93.95;20.80;;;1.60;44.90;;;;;;5050873;28;20206;-70
2020/12/10 07:50:49;;;;;;;92.13;22.40;;;1.60;45.70;;;;;;5051129;28;20241;-71
2020/12/10 07:53:16;;;;;;;102.38;23.65;;;1.60;46.10;;;;;;5051244;28;20213;-70
2020/12/10 07:55:50;;;;;;;97.53;23.83;;;1.60;46.20;;;;;;5051314;28;20209;-71
2020/12/10 07:58:22;;;;;;;97.00;20.73;;;1.60;45.80;;;;;;5051229;28;20218;-70
2020/12/10 08:00:49;;;;;;;92.05;20.95;;;1.60;44.90;;;;;;5050899;28;20209;-70
2020/12/10 08:06:14;;;;;;;87.75;20.83;;;1.60;39.40;;;;;;5066407;28;20217;-76
2020/12/10 08:08:45;;;;;;;102.18;25.15;;;1.70;39.70;;;;;;5069768;28;20228;-76
2020/12/10 08:11:15;;;;;;;110.53;25.98;;;1.70;38.60;;;;;;5069262;28;20205;-76
2020/12/10 08:13:55;;;;;;;101.25;24.65;;;1.70;36.60;;;;;;5069252;28;20236;-75
2020/12/10 08:16:22;;;;;;;98.40;22.95;;;1.70;35.40;;;;;;5069670;28;20292;-75
2020/12/10 08:18:49;;;;;;;103.57;24.65;;;1.70;37.10;;;;;;5069335;28;20237;-76
2020/12/10 08:21:30;;;;;;;102.00;24.42;;;1.70;38.60;;;;;;5070457;28;20675;-76
2020/12/10 08:23:57;;;;;;;95.70;21.95;;;1.60;39.00;;;;;;5071395;28;20205;-76
2020/12/10 08:26:23;;;;;;;97.85;24.20;;;1.60;40.70;;;;;;5071353;28;20213;-75
2020/12/10 08:28:53;;;;;;;92.93;22.13;;;1.60;40.50;;;;;;5070988;28;20205;-76
2020/12/10 08:31:22;;;;;;;99.55;23.30;;;1.70;40.40;;;;;;5071190;28;20643;-75
2020/12/10 08:33:48;;;;;;;101.35;23.77;;;1.70;40.50;;;;;;5071046;28;20205;-76
2020/12/10 08:36:27;;;;;;;100.18;23.33;;;1.70;42.50;;;;;;5070878;28;20215;-76
2020/12/10 08:38:55;;;;;;;102.68;25.08;;;1.80;45.40;;;;;;5070992;28;20267;-75
2020/12/10 08:41:26;;;;;;;99.03;24.00;;;1.80;43.50;;;;;;5070951;28;20228;-76
2020/12/10 08:43:54;;;;;;;102.18;24.83;;;1.90;40.80;;;;;;5070964;28;20635;-75
2020/12/10 08:46:21;;;;;;;105.63;25.70;;;1.90;38.30;;;;;;5070999;28;20282;-75
2020/12/10 08:48:48;;;;;;;99.97;22.73;;;2.00;35.40;;;;;;5070917;28;20563;-75
2020/12/10 08:51:14;;;;;;;99.28;24.90;;;2.00;34.90;;;;;;5070747;28;20295;-75
2020/12/10 08:53:48;;;;;;;96.85;23.80;;;2.10;33.00;;;;;;5071128;28;20288;-76
2020/12/10 08:56:22;;;;;;;105.88;26.10;;;2.10;32.10;;;;;;5071174;28;20205;-75
2020/12/10 08:58:49;;;;;;;99.53;25.10;;;2.20;32.50;;;;;;5072885;28;20727;-75
2020/12/10 09:01:15;;;;;;;97.95;24.13;;;2.30;30.30;;;;;;5074141;28;20205;-74
2020/12/10 09:03:42;;;;;;;147.45;26.65;;;2.40;29.40;;;;;;5074404;28;20287;-74
2020/12/10 09:06:09;;;;;;;124.70;26.23;;;2.40;30.00;;;;;;5074356;28;20307;-73
2020/12/10 09:08:35;;;;;;;117.90;27.13;;;2.40;32.50;;;;;;5074777;28;20286;-73
2020/12/10 09:11:01;;;;;;;112.35;23.80;;;2.30;32.00;;;;;;5074339;28;20291;-74
2020/12/10 09:13:28;;;;;;;114.80;26.95;;;2.30;33.20;;;;;;5074159;28;20205;-74
2020/12/10 09:15:54;;;;;;;102.07;24.95;;;2.30;33.70;;;;;;5074352;28;20403;-74
2020/12/10 09:18:20;;;;;;;107.55;24.48;;;2.20;35.50;;;;;;5074205;28;20282;-74
2020/12/10 09:20:48;;;;;;;91.05;20.33;;;2.20;36.80;;;;;;5074333;28;20296;-74
2020/12/10 09:23:14;;;;;;;89.70;19.90;;;2.20;36.90;;;;;;5074017;28;20646;-74
2020/12/10 09:25:41;;;;;;;88.55;20.77;;;2.30;38.80;;;;;;5074077;28;20711;-73
2020/12/10 09:28:09;;;;;;;103.75;22.10;;;2.30;39.00;;;;;;5073819;28;20205;-74
2020/12/10 09:30:36;;;;;;;101.45;23.45;;;2.40;40.30;;;;;;5074338;28;20219;-73
2020/12/10 09:33:03;;;;;;;106.07;23.02;;;2.40;37.70;;;;;;5074184;28;20207;-74
2020/12/10 09:35:30;;;;;;;103.95;26.10;;;2.50;34.50;;;;;;5074166;28;20232;-74
2020/12/10 09:37:57;;;;;;;101.40;24.30;;;2.60;27.40;;;;;;5074096;28;20221;-74
2020/12/10 09:40:27;;;;;;;103.15;24.67;;;2.70;22.40;;;;;;5074214;28;20646;-74
2020/12/10 09:42:53;;;;;;;98.82;25.98;;;2.70;19.70;;;;;;5073564;28;20714;-74
2020/12/10 09:45:20;;;;;;;99.85;24.05;;;2.80;9.40;;;;;;5073934;28;20239;-74
2020/12/10 09:47:47;;;;;;;104.28;25.08;;;2.80;2.40;;;;;;5074026;28;20239;-74
2020/12/10 09:50:23;;;;;;;102.80;25.80;;;2.90;1.00;;;;;;5073676;28;20277;-74
2020/12/10 09:52:56;;;;;;;94.80;22.45;;;2.90;1.00;;;;;;5073744;28;20628;-74
2020/12/10 09:58:07;;;;;;;91.85;21.52;;;3.00;1.00;;;;;;5052244;28;20233;-73
2020/12/10 10:00:34;;;;;;;101.22;21.10;;;3.10;2.00;;;;;;5074009;28;20212;-73
2020/12/10 10:03:05;;;;;;;121.57;25.10;;;3.20;4.40;;;;;;5073727;28;20304;-74
2020/12/10 10:05:32;;;;;;;98.53;21.92;;;3.30;5.90;;;;;;5073296;28;20239;-75
2020/12/10 10:07:58;;;;;;;94.70;22.15;;;3.30;1.00;;;;;;5073229;28;20291;-75
2020/12/10 10:10:25;;;;;;;89.18;21.73;;;3.30;1.00;;;;;;5073075;28;20216;-75
2020/12/10 10:12:52;;;;;;;92.75;20.67;;;3.30;1.00;;;;;;5072941;28;20740;-75
2020/12/10 10:15:18;;;;;;;89.30;19.98;;;3.40;1.00;;;;;;5073238;28;20640;-73
2020/12/10 10:17:45;;;;;;;93.85;20.92;;;3.40;1.00;;;;;;5073043;28;20221;-75
2020/12/10 10:20:11;;;;;;;94.25;19.50;;;3.50;1.00;;;;;;5073097;28;20300;-74
2020/12/10 10:22:38;;;;;;;88.90;19.50;;;3.60;1.00;;;;;;5073117;28;20205;-74
2020/12/10 10:25:05;;;;;;;86.20;17.50;;;3.70;1.00;;;;;;5073216;28;20260;-74
2020/12/10 10:27:32;;;;;;;87.25;18.83;;;3.80;1.00;;;;;;5072992;28;20201;-74
2020/12/10 10:29:59;;;;;;;83.55;17.40;;;3.90;1.00;;;;;;5072922;28;20201;-73
2020/12/10 10:32:25;;;;;;;80.95;16.77;;;3.90;1.00;;;;;;5072606;28;20296;-74
2020/12/10 10:34:51;;;;;;;82.90;16.98;;;4.00;1.00;;;;;;5072644;28;20312;-74
2020/12/10 10:37:18;;;;;;;80.30;17.02;;;4.10;1.00;;;;;;5072787;28;22188;-74
2020/12/10 10:39:44;;;;;;;91.85;13.68;;;4.20;1.00;;;;;;5073115;28;20216;-74
2020/12/10 10:42:10;;;;;;;76.03;12.60;;;4.30;1.00;;;;;;5072524;28;20216;-74
2020/12/10 10:44:37;;;;;;;70.53;11.43;;;4.30;1.00;;;;;;5072465;28;20225;-75
2020/12/10 10:47:04;;;;;;;73.80;12.70;;;4.30;1.00;;;;;;5072606;28;20296;-74
2020/12/10 10:49:30;;;;;;;67.72;9.70;;;4.20;1.00;;;;;;5072294;28;20295;-74
2020/12/10 10:51:56;;;;;;;65.68;10.00;;;4.10;1.00;;;;;;5072469;28;20627;-74
2020/12/10 10:54:23;;;;;;;69.20;10.38;;;4.10;1.00;;;;;;5072357;28;20355;-75
2020/12/10 10:56:49;;;;;;;69.38;10.75;;;4.10;1.00;;;;;;5072321;28;20209;-75
2020/12/10 10:59:15;;;;;;;67.30;10.98;;;4.20;1.00;;;;;;5072169;28;20278;-73
2020/12/10 11:01:43;;;;;;;66.15;9.73;;;4.10;1.00;;;;;;5072250;28;20205;-74
2020/12/10 11:04:09;;;;;;;65.30;10.02;;;4.10;1.00;;;;;;5072128;28;20235;-74
2020/12/10 11:06:35;;;;;;;65.47;9.68;;;4.10;1.00;;;;;;5072479;28;20213;-74
2020/12/10 11:09:02;;;;;;;64.60;9.30;;;4.10;1.00;;;;;;5072224;28;20216;-74
2020/12/10 11:11:28;;;;;;;64.95;8.75;;;4.10;1.00;;;;;;5071893;28;20220;-73
2020/12/10 11:13:54;;;;;;;62.97;8.88;;;4.00;1.00;;;;;;5072160;28;20296;-74
2020/12/10 11:16:22;;;;;;;65.63;9.10;;;4.00;1.00;;;;;;5072181;28;20300;-74
2020/12/10 11:18:49;;;;;;;64.18;9.65;;;4.10;1.00;;;;;;5071920;28;20259;-73
2020/12/10 11:21:15;;;;;;;66.13;10.07;;;4.10;1.00;;;;;;5071471;28;20655;-73
2020/12/10 11:23:42;;;;;;;65.93;9.90;;;4.20;1.00;;;;;;5072000;28;20209;-73
2020/12/10 11:26:09;;;;;;;68.18;10.93;;;4.20;1.00;;;;;;5071965;28;20216;-73
2020/12/10 11:28:35;;;;;;;67.15;9.38;;;4.10;1.00;;;;;;5071970;28;20288;-73
2020/12/10 11:31:02;;;;;;;67.85;10.35;;;4.10;1.00;;;;;;5071574;28;20264;-72
2020/12/10 11:33:28;;;;;;;67.03;10.40;;;4.10;1.00;;;;;;5071815;28;20292;-73
2020/12/10 11:35:55;;;;;;;67.20;11.02;;;4.10;1.00;;;;;;5072050;28;20225;-73
2020/12/10 11:38:22;;;;;;;71.20;12.13;;;4.10;1.00;;;;;;5071638;28;20224;-73
2020/12/10 11:40:48;;;;;;;65.20;9.85;;;4.10;1.00;;;;;;5072019;28;20216;-73
2020/12/10 11:43:16;;;;;;;69.22;11.57;;;4.20;1.00;;;;;;5071721;28;20278;-72
2020/12/10 11:45:42;;;;;;;68.95;11.80;;;4.20;1.00;;;;;;5071362;28;20236;-73
2020/12/10 11:48:09;;;;;;;67.40;10.65;;;4.20;1.00;;;;;;5071439;28;20201;-74
2020/12/10 11:50:36;;;;;;;68.07;10.75;;;4.20;1.00;;;;;;5071481;28;20208;-73
2020/12/10 11:53:05;;;;;;;74.22;13.05;;;4.20;1.00;;;;;;5071294;28;20628;-76
2020/12/10 11:55:31;;;;;;;77.25;14.75;;;4.20;1.00;;;;;;5071416;28;20228;-75
2020/12/10 11:57:58;;;;;;;72.53;14.43;;;4.10;1.00;;;;;;5071240;28;20308;-76
2020/12/10 12:00:24;;;;;;;75.32;14.68;;;4.10;1.00;;;;;;5072292;28;20216;-76
2020/12/10 12:02:51;;;;;;;77.70;15.48;;;4.00;1.00;;;;;;5072150;28;20210;-76
2020/12/10 12:05:19;;;;;;;74.65;14.45;;;4.00;1.00;;;;;;5071088;28;20237;-76
2020/12/10 12:07:47;;;;;;;76.95;16.48;;;3.90;1.00;;;;;;5070533;28;20750;-73
2020/12/10 12:10:15;;;;;;;75.93;15.43;;;3.90;1.00;;;;;;5070675;28;20587;-72
2020/12/10 12:12:41;;;;;;;71.25;13.43;;;3.90;1.00;;;;;;5070774;28;20738;-72
2020/12/10 12:15:08;;;;;;;75.03;14.18;;;3.80;1.00;;;;;;5071244;28;20228;-73
2020/12/10 12:17:34;;;;;;;84.55;16.23;;;3.90;1.00;;;;;;5071095;28;20225;-72
2020/12/10 12:20:01;;;;;;;83.88;16.70;;;3.90;1.00;;;;;;5071146;28;20216;-72
2020/12/10 12:22:28;;;;;;;80.15;16.52;;;3.90;1.00;;;;;;5070899;28;20205;-72
2020/12/10 12:24:54;;;;;;;77.13;15.73;;;3.90;1.00;;;;;;5071210;28;20231;-72
2020/12/10 12:27:21;;;;;;;75.15;15.60;;;3.90;1.00;;;;;;5071124;28;20299;-72
2020/12/10 12:29:48;;;;;;;76.10;15.07;;;3.80;1.00;;;;;;5071341;28;20664;-74
2020/12/10 12:32:14;;;;;;;82.93;17.13;;;3.80;1.00;;;;;;5072318;28;20220;-74
2020/12/10 12:34:40;;;;;;;80.13;17.15;;;3.80;1.00;;;;;;5075325;28;20220;-74
2020/12/10 12:37:07;;;;;;;86.60;26.13;;;3.80;1.00;;;;;;5075198;28;20244;-73
2020/12/10 12:39:33;;;;;;;81.63;19.33;;;3.80;1.00;;;;;;5074884;28;20237;-73
2020/12/10 12:42:03;;;;;;;75.45;14.88;;;3.80;1.00;;;;;;5074999;28;20296;-73
2020/12/10 12:44:31;;;;;;;77.55;14.77;;;3.80;1.00;;;;;;5092318;28;20213;-73
2020/12/10 12:46:57;;;;;;;77.45;17.00;;;3.80;1.00;;;;;;5091559;28;20204;-73